Time;durP1;ratioP1;P1;durP2;ratioP2;P2;SDS_P1;SDS_P2;PMS_P1;PMS_P2;Temp;Humidity;BMP_temperature;BMP_pressure;BME280_temperature;BME280_humidity;BME280_pressure;Samples;Min_cycle;Max_cycle;Signal;HPM_P1;HPM_P2
2023/03/31 00:01:51;;;;;;;12.05;10.77;;;9.80;99.90;;;;;;5043153;28;20124;-71
2023/03/31 00:04:22;;;;;;;12.85;11.20;;;9.80;99.90;;;;;;5050308;28;20573;-71
2023/03/31 00:06:52;;;;;;;11.60;10.70;;;9.80;99.90;;;;;;5053651;28;20474;-71
2023/03/31 00:09:20;;;;;;;12.50;10.65;;;9.80;99.90;;;;;;5046692;28;20045;-71
2023/03/31 00:11:51;;;;;;;10.73;10.00;;;9.70;99.90;;;;;;5050164;28;20036;-70
2023/03/31 00:14:19;;;;;;;16.23;10.65;;;9.70;99.90;;;;;;5049871;28;20531;-72
2023/03/31 00:16:46;;;;;;;11.70;10.80;;;9.70;99.90;;;;;;5050731;28;20619;-70
2023/03/31 00:19:20;;;;;;;11.55;10.45;;;9.70;99.90;;;;;;5047305;28;20064;-71
2023/03/31 00:21:47;;;;;;;13.68;10.45;;;9.70;99.90;;;;;;5050483;28;20041;-71
2023/03/31 00:24:15;;;;;;;12.18;11.02;;;9.60;99.90;;;;;;5048719;28;20234;-71
2023/03/31 00:26:42;;;;;;;10.90;9.93;;;9.60;99.90;;;;;;5051619;28;20068;-71
2023/03/31 00:29:12;;;;;;;11.65;10.45;;;9.60;99.90;;;;;;5041534;28;20473;-71
2023/03/31 00:31:39;;;;;;;10.27;9.48;;;9.60;99.90;;;;;;5049101;28;20041;-71
2023/03/31 00:34:06;;;;;;;10.43;9.50;;;9.60;99.90;;;;;;5051366;28;20175;-70
2023/03/31 00:36:35;;;;;;;11.27;10.18;;;9.60;99.90;;;;;;5049324;28;20045;-70
2023/03/31 00:39:08;;;;;;;11.48;9.75;;;9.50;99.90;;;;;;5052428;28;20050;-71
2023/03/31 00:41:37;;;;;;;13.15;9.80;;;9.50;99.90;;;;;;5047239;28;20033;-71
2023/03/31 00:44:07;;;;;;;10.15;9.23;;;9.50;99.90;;;;;;5051725;28;20072;-71
2023/03/31 00:46:55;;;;;;;12.80;9.95;;;9.50;99.90;;;;;;5047632;28;20033;-71
2023/03/31 00:49:30;;;;;;;12.13;10.10;;;9.50;99.90;;;;;;5041919;28;20055;-70
2023/03/31 00:52:04;;;;;;;;;;;9.60;99.90;;;;;;5052238;28;20041;-71
2023/03/31 00:54:33;;;;;;;10.60;9.50;;;9.60;99.90;;;;;;5047696;28;19921;-70
2023/03/31 00:57:02;;;;;;;10.52;9.43;;;9.60;99.90;;;;;;5052984;28;20503;-69
2023/03/31 00:59:33;;;;;;;14.77;10.18;;;9.60;99.90;;;;;;5045318;28;20086;-69
2023/03/31 01:02:01;;;;;;;10.45;9.38;;;9.70;99.90;;;;;;5044863;28;20049;-70
2023/03/31 01:04:33;;;;;;;10.85;9.77;;;9.70;99.90;;;;;;5026813;28;20658;-70
2023/03/31 01:07:21;;;;;;;10.80;9.80;;;9.70;99.90;;;;;;5042173;28;20047;-70
2023/03/31 01:09:53;;;;;;;11.27;10.20;;;9.70;99.90;;;;;;5052603;28;20522;-70
2023/03/31 01:12:21;;;;;;;11.77;10.57;;;9.70;99.90;;;;;;5048524;28;20139;-70
2023/03/31 01:14:50;;;;;;;12.60;10.35;;;9.80;99.90;;;;;;5047022;28;20162;-70
2023/03/31 01:17:20;;;;;;;15.88;11.02;;;9.80;99.90;;;;;;5049566;28;20114;-70
2023/03/31 01:20:13;;;;;;;12.10;11.00;;;9.90;99.90;;;;;;5046301;28;20040;-70
2023/03/31 01:22:53;;;;;;;15.80;11.70;;;10.00;99.90;;;;;;5047240;28;20077;-70
2023/03/31 01:25:41;;;;;;;13.15;11.57;;;10.00;99.90;;;;;;5048687;28;20146;-71
2023/03/31 01:28:15;;;;;;;14.02;12.57;;;10.00;99.90;;;;;;5044979;28;20080;-69
2023/03/31 01:31:30;;;;;;;13.25;11.90;;;10.10;99.90;;;;;;5048576;28;20048;-69
2023/03/31 01:34:18;;;;;;;13.10;12.02;;;10.10;99.90;;;;;;5015891;28;20055;-71
2023/03/31 01:37:20;;;;;;;13.52;12.23;;;10.10;99.90;;;;;;5045957;28;20060;-69
2023/03/31 01:40:23;;;;;;;13.98;12.70;;;10.10;99.90;;;;;;5010920;28;20040;-71
2023/03/31 01:43:11;;;;;;;14.07;12.25;;;10.10;99.90;;;;;;5048157;28;20048;-71
2023/03/31 01:45:59;;;;;;;13.32;12.00;;;10.10;99.90;;;;;;5047069;28;20129;-71
2023/03/31 01:49:10;;;;;;;13.63;12.40;;;10.20;99.90;;;;;;5050448;28;20563;-71
2023/03/31 01:51:46;;;;;;;13.85;12.55;;;10.10;99.90;;;;;;4993213;28;20044;-72
2023/03/31 01:54:38;;;;;;;13.48;12.20;;;10.10;99.90;;;;;;5046063;28;20045;-72
2023/03/31 01:57:34;;;;;;;13.20;12.23;;;10.00;99.90;;;;;;5047170;28;20044;-72
2023/03/31 02:00:15;;;;;;;12.85;11.63;;;10.10;99.90;;;;;;5043618;28;20581;-71
2023/03/31 02:02:45;;;;;;;12.75;11.70;;;10.00;99.90;;;;;;5046787;28;20453;-71
2023/03/31 02:05:25;;;;;;;12.68;11.63;;;9.90;99.90;;;;;;5044073;28;20044;-71
2023/03/31 02:08:05;;;;;;;12.25;11.27;;;9.90;99.90;;;;;;5051153;28;20239;-72
2023/03/31 02:10:34;;;;;;;12.82;11.40;;;9.90;99.90;;;;;;5046480;28;20052;-71
2023/03/31 02:13:02;;;;;;;13.77;11.20;;;9.90;99.90;;;;;;5049032;28;20135;-71
2023/03/31 02:15:45;;;;;;;12.27;11.27;;;9.80;99.90;;;;;;5048168;28;20127;-71
2023/03/31 02:18:16;;;;;;;11.60;10.73;;;9.80;99.90;;;;;;5042966;28;20036;-72
2023/03/31 02:20:45;;;;;;;12.80;11.48;;;9.70;99.90;;;;;;5047411;28;20140;-71
2023/03/31 02:23:14;;;;;;;11.73;10.52;;;9.70;99.90;;;;;;5048268;28;20278;-72
2023/03/31 02:25:49;;;;;;;13.85;10.90;;;9.70;99.90;;;;;;5042128;28;20086;-72
2023/03/31 02:28:21;;;;;;;14.90;11.25;;;9.70;99.90;;;;;;5048462;28;20616;-71
2023/03/31 02:30:58;;;;;;;12.10;10.95;;;9.70;99.90;;;;;;5048259;28;20570;-72
2023/03/31 02:33:24;;;;;;;11.88;10.77;;;9.70;99.90;;;;;;5042206;28;20312;-73
2023/03/31 02:35:51;;;;;;;12.48;11.32;;;9.70;99.90;;;;;;5042177;28;20044;-70
2023/03/31 02:38:18;;;;;;;13.45;11.10;;;9.70;99.90;;;;;;5046018;28;20044;-71
2023/03/31 02:40:45;;;;;;;12.48;11.27;;;9.80;99.90;;;;;;5046375;28;20638;-71
2023/03/31 02:43:12;;;;;;;13.13;11.77;;;9.80;99.90;;;;;;5049758;28;20072;-70
2023/03/31 02:45:45;;;;;;;20.63;11.73;;;9.80;99.90;;;;;;5044220;28;20063;-72
2023/03/31 02:48:20;;;;;;;12.10;11.10;;;9.80;99.90;;;;;;5051467;28;20048;-71
2023/03/31 02:50:58;;;;;;;13.23;11.98;;;9.80;99.90;;;;;;5026039;28;20314;-71
2023/03/31 02:53:25;;;;;;;13.18;11.75;;;9.90;99.90;;;;;;5048786;28;20763;-71
2023/03/31 02:56:08;;;;;;;13.35;12.20;;;9.80;99.90;;;;;;5048156;28;20395;-72
2023/03/31 02:58:51;;;;;;;13.20;12.10;;;9.90;99.90;;;;;;5050015;28;20072;-71
2023/03/31 03:01:49;;;;;;;12.50;11.60;;;9.90;99.90;;;;;;5045986;28;20048;-70
2023/03/31 03:04:24;;;;;;;13.05;11.77;;;9.90;99.90;;;;;;5053205;28;20071;-70
2023/03/31 03:07:04;;;;;;;13.10;11.80;;;9.90;99.90;;;;;;5043939;28;20045;-71
2023/03/31 03:09:39;;;;;;;12.15;10.82;;;9.80;99.90;;;;;;5028990;28;20254;-71
2023/03/31 03:12:08;;;;;;;;;;;9.80;99.90;;;;;;5045316;28;20053;-71
2023/03/31 03:15:02;;;;;;;17.70;10.02;;;9.80;99.90;;;;;;5062271;28;19920;-71
2023/03/31 03:17:38;;;;;;;10.38;7.90;;;9.80;99.90;;;;;;5050142;28;20085;-72
2023/03/31 03:20:09;;;;;;;10.10;7.35;;;9.70;99.90;;;;;;5049408;28;20068;-72
2023/03/31 03:22:37;;;;;;;13.45;7.68;;;9.60;99.90;;;;;;5050522;28;20410;-73
2023/03/31 03:25:06;;;;;;;7.55;6.47;;;9.60;99.90;;;;;;5053585;28;20044;-72
2023/03/31 03:27:34;;;;;;;8.65;6.18;;;9.60;99.90;;;;;;5044032;28;20044;-72
2023/03/31 03:30:03;;;;;;;9.95;5.80;;;9.60;99.90;;;;;;5052449;28;20059;-72
2023/03/31 03:32:30;;;;;;;7.90;5.75;;;9.60;99.90;;;;;;5051433;28;20052;-71
2023/03/31 03:34:57;;;;;;;12.43;5.93;;;9.60;99.90;;;;;;5056097;28;20098;-72
2023/03/31 03:37:23;;;;;;;7.47;5.28;;;9.60;99.90;;;;;;5049851;28;20032;-72
2023/03/31 03:39:50;;;;;;;7.10;5.53;;;9.50;99.90;;;;;;5053977;28;20361;-73
2023/03/31 03:42:17;;;;;;;10.40;5.10;;;9.50;99.90;;;;;;5048711;28;20055;-71
2023/03/31 03:44:43;;;;;;;14.07;5.80;;;9.50;99.90;;;;;;5055305;28;20036;-72
2023/03/31 03:47:10;;;;;;;7.50;5.10;;;9.50;99.90;;;;;;5041426;28;20075;-71
2023/03/31 03:49:37;;;;;;;8.73;5.28;;;9.50;99.90;;;;;;5050075;28;20036;-71
2023/03/31 03:52:04;;;;;;;8.43;5.15;;;9.50;99.90;;;;;;5054384;28;20044;-73
2023/03/31 03:54:31;;;;;;;10.38;5.65;;;9.50;99.90;;;;;;5043068;28;20083;-72
2023/03/31 03:56:57;;;;;;;10.27;5.10;;;9.50;99.90;;;;;;5049979;28;20143;-74
2023/03/31 03:59:24;;;;;;;6.32;5.63;;;9.50;99.90;;;;;;5050488;28;20052;-73
2023/03/31 04:01:51;;;;;;;6.70;5.30;;;9.50;99.90;;;;;;5048314;28;20047;-71
2023/03/31 04:04:18;;;;;;;10.15;5.32;;;9.50;99.90;;;;;;5033286;28;20049;-72
2023/03/31 04:06:45;;;;;;;6.32;5.10;;;9.40;99.90;;;;;;5049711;28;20075;-72
2023/03/31 04:09:11;;;;;;;11.20;5.97;;;9.50;99.90;;;;;;5048154;28;20036;-71
2023/03/31 04:11:38;;;;;;;10.13;6.07;;;9.50;99.90;;;;;;5045861;28;20044;-72
2023/03/31 04:14:05;;;;;;;12.63;6.28;;;9.50;99.90;;;;;;5045516;28;20499;-72
2023/03/31 04:16:33;;;;;;;10.48;6.78;;;9.50;99.90;;;;;;5046318;28;20482;-72
2023/03/31 04:19:02;;;;;;;10.68;7.03;;;9.50;99.90;;;;;;5049328;28;20097;-72
2023/03/31 04:21:33;;;;;;;8.63;5.90;;;9.50;99.90;;;;;;5049664;28;20051;-73
2023/03/31 04:24:03;;;;;;;9.18;5.90;;;9.50;99.90;;;;;;5045763;28;20048;-72
2023/03/31 04:26:41;;;;;;;12.50;6.15;;;9.50;99.90;;;;;;5047108;28;20056;-71
2023/03/31 04:29:13;;;;;;;14.20;6.78;;;9.50;99.90;;;;;;5048717;28;20121;-71
2023/03/31 04:31:43;;;;;;;10.70;6.90;;;9.40;99.90;;;;;;5040789;28;20570;-72
2023/03/31 04:34:12;;;;;;;15.00;7.60;;;9.40;99.90;;;;;;5047164;28;20045;-72
2023/03/31 04:36:47;;;;;;;97.95;44.10;;;9.30;99.90;;;;;;5049907;28;20101;-72
2023/03/31 04:39:16;;;;;;;69.40;30.48;;;9.20;99.90;;;;;;5049266;28;20174;-71
2023/03/31 04:41:43;;;;;;;13.38;5.55;;;9.20;99.90;;;;;;5055585;28;20055;-71
2023/03/31 04:44:10;;;;;;;8.68;5.00;;;9.10;99.90;;;;;;5056376;28;20872;-72
2023/03/31 04:46:36;;;;;;;10.23;4.45;;;9.10;99.90;;;;;;5047802;28;20143;-72
2023/03/31 04:49:04;;;;;;;5.18;4.30;;;9.00;99.90;;;;;;5048063;28;20499;-72
2023/03/31 04:51:31;;;;;;;12.00;4.82;;;9.00;99.90;;;;;;5034726;28;20044;-71
2023/03/31 04:53:58;;;;;;;9.18;4.63;;;9.00;99.90;;;;;;5048440;28;20594;-72
2023/03/31 04:56:25;;;;;;;9.00;3.95;;;8.90;99.90;;;;;;5046948;28;20036;-72
2023/03/31 04:58:52;;;;;;;10.38;3.70;;;8.90;99.90;;;;;;5049277;28;20104;-71
2023/03/31 05:01:19;;;;;;;6.80;4.15;;;8.90;99.90;;;;;;5042414;28;20044;-72
2023/03/31 05:03:46;;;;;;;5.53;4.35;;;8.90;99.90;;;;;;5049255;28;20052;-72
2023/03/31 05:06:15;;;;;;;12.73;5.72;;;8.90;99.90;;;;;;5046359;28;20076;-71
2023/03/31 05:08:42;;;;;;;14.57;4.68;;;8.80;99.90;;;;;;5047302;28;20521;-72
2023/03/31 05:11:10;;;;;;;10.93;4.72;;;8.90;99.90;;;;;;5045019;28;20128;-72
2023/03/31 05:13:36;;;;;;;8.30;5.40;;;8.90;99.90;;;;;;5039617;28;20115;-73
2023/03/31 05:16:08;;;;;;;14.73;4.95;;;8.90;99.90;;;;;;5041382;28;20045;-73
2023/03/31 05:18:35;;;;;;;11.30;4.93;;;8.90;99.90;;;;;;5039219;28;20051;-73
2023/03/31 05:21:18;;;;;;;7.35;4.53;;;8.90;99.90;;;;;;5045312;28;20056;-72
2023/03/31 05:23:45;;;;;;;11.40;5.63;;;8.90;99.90;;;;;;5043208;28;20446;-72
2023/03/31 05:26:13;;;;;;;10.35;5.70;;;8.90;99.90;;;;;;5048961;28;20074;-73
2023/03/31 05:28:40;;;;;;;12.73;6.20;;;8.90;99.90;;;;;;5045810;28;20049;-72
2023/03/31 05:31:07;;;;;;;13.68;6.03;;;8.90;99.90;;;;;;5048852;28;20075;-72
2023/03/31 05:33:39;;;;;;;11.90;5.65;;;8.80;99.90;;;;;;5044015;28;20049;-72
2023/03/31 05:36:10;;;;;;;12.40;5.80;;;8.80;99.90;;;;;;5057473;22;20205;-74
2023/03/31 05:38:38;;;;;;;12.73;6.15;;;8.80;99.90;;;;;;5036655;28;20140;-74
2023/03/31 05:41:06;;;;;;;9.00;5.07;;;8.80;99.90;;;;;;5018078;28;20037;-73
2023/03/31 05:43:33;;;;;;;12.70;5.95;;;8.90;99.90;;;;;;5037495;28;20525;-74
2023/03/31 05:46:00;;;;;;;13.90;5.07;;;8.90;99.90;;;;;;5024839;28;20044;-73
2023/03/31 05:48:27;;;;;;;9.48;5.85;;;8.80;99.90;;;;;;5039800;28;20056;-73
2023/03/31 05:50:58;;;;;;;12.65;6.40;;;8.80;99.90;;;;;;5024657;28;20443;-73
2023/03/31 05:53:25;;;;;;;12.85;5.18;;;8.80;99.90;;;;;;5042368;28;20040;-74
2023/03/31 05:56:00;;;;;;;13.60;5.15;;;8.90;99.90;;;;;;5028058;28;20052;-72
2023/03/31 05:58:28;;;;;;;12.90;5.22;;;8.80;99.90;;;;;;5030058;28;20095;-73
2023/03/31 06:01:04;;;;;;;13.48;5.53;;;8.90;99.90;;;;;;5027185;28;20083;-73
2023/03/31 06:03:33;;;;;;;11.95;5.03;;;8.90;99.90;;;;;;5046525;28;20179;-73
2023/03/31 06:06:00;;;;;;;14.20;5.35;;;8.90;99.90;;;;;;5049707;28;20050;-73
2023/03/31 06:08:28;;;;;;;11.95;5.72;;;8.90;99.90;;;;;;5031999;28;20384;-73
2023/03/31 06:10:55;;;;;;;15.00;6.68;;;8.90;99.90;;;;;;5012651;28;20036;-73
2023/03/31 06:13:22;;;;;;;15.55;6.55;;;8.90;99.90;;;;;;5047563;28;20434;-73
2023/03/31 06:15:57;;;;;;;17.45;6.03;;;8.90;99.90;;;;;;5030213;28;20039;-72
2023/03/31 06:18:25;;;;;;;;;;;8.90;99.90;;;;;;5044656;28;20517;-73
2023/03/31 06:20:52;;;;;;;18.88;6.93;;;9.00;99.90;;;;;;5046345;28;19920;-73
2023/03/31 06:23:18;;;;;;;10.88;6.03;;;8.90;99.90;;;;;;5012517;28;20048;-71
2023/03/31 06:25:45;;;;;;;9.25;6.05;;;9.00;99.90;;;;;;5028223;28;20041;-72
2023/03/31 06:28:19;;;;;;;11.30;6.70;;;8.90;99.90;;;;;;5037840;28;21513;-73
2023/03/31 06:30:46;;;;;;;14.55;6.78;;;8.90;99.90;;;;;;5030417;28;20080;-72
2023/03/31 06:33:13;;;;;;;12.50;6.47;;;9.00;99.90;;;;;;5020951;28;20052;-74
2023/03/31 06:35:40;;;;;;;12.82;6.53;;;8.90;99.90;;;;;;5006590;28;20151;-72
2023/03/31 06:38:07;;;;;;;14.55;6.25;;;9.00;99.90;;;;;;5025045;28;20416;-73
2023/03/31 06:40:35;;;;;;;8.38;5.50;;;9.00;99.90;;;;;;5041289;28;20044;-74
2023/03/31 06:43:01;;;;;;;13.90;5.95;;;9.00;99.90;;;;;;5040363;28;20068;-73
2023/03/31 06:45:29;;;;;;;12.55;5.75;;;9.00;99.90;;;;;;5045910;28;20028;-73
2023/03/31 06:47:55;;;;;;;11.95;6.32;;;9.00;99.90;;;;;;5008448;28;20048;-72
2023/03/31 06:50:22;;;;;;;14.98;6.07;;;9.00;99.90;;;;;;5043569;28;20028;-73
2023/03/31 06:52:51;;;;;;;11.27;5.93;;;9.00;99.90;;;;;;5028743;28;20102;-73
2023/03/31 06:55:18;;;;;;;12.02;5.93;;;9.00;99.90;;;;;;5029223;28;20056;-72
2023/03/31 06:57:45;;;;;;;10.13;5.18;;;9.00;99.90;;;;;;5044410;28;20533;-72
2023/03/31 07:00:12;;;;;;;10.60;6.00;;;9.10;99.90;;;;;;5045681;28;20048;-72
2023/03/31 07:02:39;;;;;;;16.00;5.95;;;9.10;99.90;;;;;;5041351;28;20041;-73
2023/03/31 07:05:06;;;;;;;12.25;5.43;;;9.10;99.90;;;;;;5026697;28;20033;-73
2023/03/31 07:07:33;;;;;;;9.73;5.03;;;9.10;99.90;;;;;;5032566;28;21294;-73
2023/03/31 07:10:00;;;;;;;12.57;5.53;;;9.10;99.90;;;;;;5045068;28;20053;-72
2023/03/31 07:12:27;;;;;;;13.77;5.15;;;9.10;99.90;;;;;;5026853;28;20090;-72
2023/03/31 07:14:53;;;;;;;13.32;5.13;;;9.10;99.90;;;;;;5049918;28;20054;-72
2023/03/31 07:17:24;;;;;;;12.60;4.78;;;9.10;99.90;;;;;;5027413;28;20123;-72
2023/03/31 07:19:50;;;;;;;10.95;4.72;;;9.10;99.90;;;;;;5026625;28;20515;-73
2023/03/31 07:22:17;;;;;;;7.15;4.30;;;9.20;99.90;;;;;;5041547;28;20033;-73
2023/03/31 07:24:44;;;;;;;9.25;4.78;;;9.20;99.90;;;;;;5045621;28;20060;-72
2023/03/31 07:27:10;;;;;;;9.90;4.25;;;9.10;99.90;;;;;;5045413;28;20067;-71
2023/03/31 07:29:37;;;;;;;8.88;5.47;;;9.10;99.90;;;;;;5044144;28;20048;-73
2023/03/31 07:32:03;;;;;;;9.20;4.15;;;9.10;99.90;;;;;;5047668;28;20549;-73
2023/03/31 07:34:30;;;;;;;5.03;3.75;;;9.00;99.90;;;;;;5047423;28;20048;-73
2023/03/31 07:36:57;;;;;;;6.22;3.55;;;9.10;99.90;;;;;;5050141;28;20032;-73
2023/03/31 07:39:24;;;;;;;6.63;3.88;;;9.10;99.90;;;;;;5041719;28;20354;-73
2023/03/31 07:41:51;;;;;;;10.38;4.38;;;9.10;99.90;;;;;;5047717;28;20251;-73
2023/03/31 07:44:19;;;;;;;4.80;3.47;;;9.10;99.90;;;;;;5046916;28;20053;-72
2023/03/31 07:46:45;;;;;;;8.93;3.90;;;9.10;99.90;;;;;;5044927;28;20067;-73
2023/03/31 07:49:14;;;;;;;11.57;4.88;;;9.10;99.90;;;;;;5048200;28;20618;-73
2023/03/31 07:51:41;;;;;;;13.95;5.10;;;9.10;99.90;;;;;;5045553;28;20036;-73
2023/03/31 07:54:08;;;;;;;9.07;3.70;;;9.20;99.90;;;;;;5051364;28;20049;-73
2023/03/31 07:56:35;;;;;;;5.90;3.70;;;9.20;99.90;;;;;;5044016;28;20052;-72
2023/03/31 07:59:02;;;;;;;8.77;3.67;;;9.20;99.90;;;;;;5054080;28;20588;-73
2023/03/31 08:01:29;;;;;;;7.57;3.60;;;9.20;99.90;;;;;;5045640;28;20037;-72
2023/03/31 08:03:56;;;;;;;7.20;3.10;;;9.20;99.90;;;;;;5042170;28;20045;-73
2023/03/31 08:06:24;;;;;;;5.43;2.97;;;9.10;99.90;;;;;;5027096;28;20041;-72
2023/03/31 08:08:51;;;;;;;7.90;4.03;;;9.20;99.90;;;;;;5031992;28;20083;-73
2023/03/31 08:11:19;;;;;;;6.93;3.58;;;9.20;99.90;;;;;;5008552;28;20060;-73
2023/03/31 08:13:46;;;;;;;5.88;3.92;;;9.20;99.90;;;;;;5027931;28;20338;-74
2023/03/31 08:16:13;;;;;;;10.63;3.97;;;9.20;99.90;;;;;;5032646;28;20052;-73
2023/03/31 08:18:40;;;;;;;6.57;3.60;;;9.20;99.90;;;;;;5029889;28;20054;-72
2023/03/31 08:21:08;;;;;;;4.38;2.80;;;9.20;99.90;;;;;;5022837;28;20036;-72
2023/03/31 08:23:35;;;;;;;5.40;3.00;;;9.20;99.90;;;;;;5027166;28;20409;-73
2023/03/31 08:26:16;;;;;;;5.78;2.90;;;9.20;99.90;;;;;;5029476;28;20041;-72
2023/03/31 08:28:47;;;;;;;5.90;2.63;;;9.20;99.90;;;;;;5047391;28;20144;-72
2023/03/31 08:31:17;;;;;;;4.60;3.05;;;9.20;99.90;;;;;;5013276;28;20127;-72
2023/03/31 08:33:45;;;;;;;8.95;3.33;;;9.20;99.90;;;;;;5046664;28;20075;-72
2023/03/31 08:36:12;;;;;;;7.22;3.50;;;9.20;99.90;;;;;;5047974;28;20032;-75
2023/03/31 08:38:40;;;;;;;9.25;3.13;;;9.20;99.90;;;;;;5042440;28;20090;-71
2023/03/31 08:41:17;;;;;;;4.70;3.40;;;9.20;99.90;;;;;;5017501;28;20090;-72
2023/03/31 08:43:47;;;;;;;9.90;6.38;;;9.10;99.90;;;;;;5046033;28;20340;-74
2023/03/31 08:46:17;;;;;;;6.45;3.75;;;9.20;99.90;;;;;;5049307;28;20106;-73
2023/03/31 08:48:50;;;;;;;7.45;3.47;;;9.20;99.90;;;;;;5027034;28;20041;-73
2023/03/31 08:51:26;;;;;;;10.40;7.13;;;9.10;99.90;;;;;;5025620;28;20040;-73
2023/03/31 08:54:31;;;;;;;6.28;4.53;;;9.10;99.90;;;;;;5026600;28;20032;-73
2023/03/31 08:56:58;;;;;;;5.13;3.40;;;9.00;99.90;;;;;;5041008;28;20040;-73
2023/03/31 08:59:33;;;;;;;6.55;3.63;;;9.00;99.90;;;;;;5023177;28;20044;-73
2023/03/31 09:02:24;;;;;;;5.17;4.17;;;9.00;99.90;;;;;;5040719;28;20391;-73
2023/03/31 09:04:54;;;;;;;3.85;3.53;;;9.00;99.90;;;;;;5045973;28;20295;-73
2023/03/31 09:07:39;;;;;;;4.18;3.47;;;9.00;99.90;;;;;;5048472;28;20062;-74
2023/03/31 09:10:27;;;;;;;9.20;3.25;;;9.00;99.90;;;;;;5028812;28;20080;-73
2023/03/31 09:13:37;;;;;;;5.20;3.58;;;8.90;99.90;;;;;;5013689;28;20048;-72
2023/03/31 09:16:14;;;;;;;8.70;4.32;;;8.80;99.90;;;;;;5014634;28;20346;-74
2023/03/31 09:18:46;;;;;;;6.15;3.65;;;8.80;99.90;;;;;;5017676;28;20049;-74
2023/03/31 09:21:27;;;;;;;15.27;7.82;;;8.80;99.90;;;;;;5010756;28;20550;-74
2023/03/31 09:24:12;;;;;;;9.00;5.05;;;8.80;99.90;;;;;;5046473;28;20037;-74
2023/03/31 09:26:51;;;;;;;7.77;4.43;;;8.80;99.90;;;;;;5027092;28;20231;-74
2023/03/31 09:29:32;;;;;;;5.45;4.07;;;8.80;99.90;;;;;;5023564;28;20079;-74
2023/03/31 09:32:17;;;;;;;8.48;3.03;;;8.60;99.90;;;;;;5041817;28;20078;-72
2023/03/31 09:34:45;;;;;;;5.97;3.05;;;8.60;99.90;;;;;;5044137;28;20488;-73
2023/03/31 09:37:12;;;;;;;4.13;2.92;;;8.60;99.90;;;;;;5041357;28;20068;-74
2023/03/31 09:39:40;;;;;;;8.93;3.70;;;8.60;99.90;;;;;;5047982;28;20041;-74
2023/03/31 09:42:11;;;;;;;4.35;2.90;;;8.70;99.90;;;;;;5031888;28;20440;-74
2023/03/31 09:44:45;;;;;;;9.27;3.88;;;8.70;99.90;;;;;;5044746;28;20048;-73
2023/03/31 09:47:33;;;;;;;4.90;2.75;;;8.70;99.90;;;;;;5045600;28;20140;-73
2023/03/31 09:50:00;;;;;;;5.47;3.15;;;8.70;99.90;;;;;;5040705;28;20048;-73
2023/03/31 09:52:32;;;;;;;3.88;3.05;;;8.80;99.90;;;;;;5039042;28;20036;-74
2023/03/31 09:55:02;;;;;;;7.47;3.35;;;8.80;99.90;;;;;;5043222;28;20534;-72
2023/03/31 09:57:34;;;;;;;5.13;2.60;;;8.80;99.90;;;;;;5047022;28;20029;-73
2023/03/31 10:00:13;;;;;;;3.58;2.60;;;8.80;99.90;;;;;;5024171;28;20047;-73
2023/03/31 10:02:44;;;;;;;16.85;10.48;;;8.90;99.90;;;;;;5012175;28;20132;-74
2023/03/31 10:05:42;;;;;;;11.27;7.78;;;9.10;99.90;;;;;;5032589;28;20288;-72
2023/03/31 10:08:37;;;;;;;7.22;4.35;;;9.20;99.90;;;;;;5022705;28;20056;-73
2023/03/31 10:11:05;;;;;;;22.20;17.33;;;9.40;99.90;;;;;;5039720;28;20048;-73
2023/03/31 10:14:00;;;;;;;16.00;12.07;;;9.40;99.90;;;;;;5019920;28;20037;-73
2023/03/31 10:16:30;;;;;;;6.97;5.80;;;9.40;99.90;;;;;;5021096;28;20330;-74
2023/03/31 10:19:25;;;;;;;12.63;9.95;;;9.60;99.90;;;;;;5045623;28;20486;-73
2023/03/31 10:22:01;;;;;;;4.40;3.40;;;9.60;99.90;;;;;;5040056;28;21263;-74
2023/03/31 10:24:43;;;;;;;7.82;4.47;;;9.70;99.90;;;;;;5017268;28;20577;-74
2023/03/31 10:27:30;;;;;;;6.95;4.88;;;9.90;99.90;;;;;;5033047;28;20048;-73
2023/03/31 10:30:02;;;;;;;10.13;5.97;;;10.10;99.90;;;;;;5035994;28;20044;-72
2023/03/31 10:32:31;;;;;;;9.82;7.30;;;10.20;99.90;;;;;;5036673;28;20136;-73
2023/03/31 10:35:26;;;;;;;14.98;10.63;;;10.30;99.90;;;;;;5021842;28;20057;-72
2023/03/31 10:38:03;;;;;;;13.20;10.25;;;10.50;99.90;;;;;;5013244;28;20212;-73
2023/03/31 10:40:35;;;;;;;8.70;7.53;;;10.50;99.90;;;;;;5024761;28;20098;-72
2023/03/31 10:43:17;;;;;;;8.30;7.45;;;10.50;99.90;;;;;;5026452;28;20048;-73
2023/03/31 10:45:55;;;;;;;12.35;8.63;;;10.50;99.90;;;;;;5039837;28;20076;-72
2023/03/31 10:48:30;;;;;;;15.20;7.45;;;10.60;99.90;;;;;;5029281;28;20048;-72
2023/03/31 10:51:17;;;;;;;8.95;7.35;;;10.60;99.90;;;;;;5023298;28;20041;-72
2023/03/31 10:53:46;;;;;;;8.07;7.35;;;10.80;99.90;;;;;;5029459;28;20068;-72
2023/03/31 10:56:34;;;;;;;11.27;9.15;;;11.10;99.90;;;;;;5051926;28;20239;-72
2023/03/31 10:59:09;;;;;;;11.98;10.98;;;11.20;99.90;;;;;;5026843;28;20041;-71
2023/03/31 11:02:09;;;;;;;12.23;10.07;;;11.40;99.90;;;;;;5044789;28;20136;-72
2023/03/31 11:04:51;;;;;;;11.50;10.35;;;11.50;99.90;;;;;;5041320;28;20041;-72
2023/03/31 11:07:50;;;;;;;19.60;17.73;;;11.60;99.90;;;;;;5050395;28;20048;-71
2023/03/31 11:10:28;;;;;;;17.55;16.30;;;11.70;99.90;;;;;;5035912;28;20075;-73
2023/03/31 11:13:07;;;;;;;16.10;14.80;;;11.80;99.90;;;;;;5048551;28;20865;-72
2023/03/31 11:16:01;;;;;;;20.40;18.58;;;12.00;99.90;;;;;;5041566;28;20045;-72
2023/03/31 11:18:52;;;;;;;18.95;17.60;;;12.20;99.90;;;;;;5026909;28;20041;-72
2023/03/31 11:21:51;;;;;;;22.00;20.42;;;12.50;99.90;;;;;;5041033;28;20045;-71
2023/03/31 11:24:30;;;;;;;19.15;17.70;;;12.50;99.90;;;;;;5014402;28;20084;-72
2023/03/31 11:27:00;;;;;;;15.68;14.73;;;12.10;99.90;;;;;;5026631;28;20521;-72
2023/03/31 11:29:35;;;;;;;14.63;13.70;;;11.90;99.90;;;;;;5049559;28;20056;-73
2023/03/31 11:32:30;;;;;;;13.93;12.75;;;11.90;99.90;;;;;;5011702;28;20218;-72
2023/03/31 11:35:13;;;;;;;16.20;14.82;;;11.90;99.90;;;;;;5039865;23;20757;-75
2023/03/31 11:37:40;;;;;;;18.95;17.35;;;12.00;99.90;;;;;;5010924;28;20470;-76
2023/03/31 11:40:40;;;;;;;16.40;14.98;;;12.10;99.90;;;;;;5001296;28;20076;-76
2023/03/31 11:43:20;;;;;;;16.15;15.07;;;12.30;99.90;;;;;;4998440;28;20048;-74
2023/03/31 11:45:56;;;;;;;19.23;17.85;;;12.40;99.90;;;;;;5002481;28;20042;-76
2023/03/31 11:48:46;;;;;;;16.88;15.70;;;12.40;99.90;;;;;;5007996;28;20041;-76
2023/03/31 11:51:24;;;;;;;19.60;17.85;;;12.50;99.90;;;;;;4995881;28;20040;-76
2023/03/31 11:53:55;;;;;;;20.58;18.65;;;12.50;99.90;;;;;;4998052;28;20045;-75
2023/03/31 11:56:29;;;;;;;19.73;18.15;;;12.50;99.90;;;;;;5032837;28;20041;-76
2023/03/31 11:58:59;;;;;;;23.90;21.88;;;12.50;99.90;;;;;;5017424;28;20120;-76
2023/03/31 12:01:39;;;;;;;22.83;21.25;;;12.50;99.90;;;;;;5030406;28;20041;-76
2023/03/31 12:04:32;;;;;;;23.27;21.13;;;12.50;99.90;;;;;;5003424;28;20051;-76
2023/03/31 12:07:22;;;;;;;29.73;22.13;;;12.70;99.90;;;;;;4995617;28;20042;-80
2023/03/31 12:10:04;;;;;;;23.08;20.73;;;12.70;99.90;;;;;;5003224;28;20128;-77
2023/03/31 12:12:38;;;;;;;20.40;18.50;;;12.30;99.90;;;;;;5002772;28;20068;-76
2023/03/31 12:15:17;;;;;;;34.05;25.15;;;12.00;99.90;;;;;;5016694;28;20033;-78
2023/03/31 12:17:49;;;;;;;25.15;13.38;;;11.70;99.90;;;;;;5010407;28;20572;-79
2023/03/31 12:20:36;;;;;;;21.13;15.77;;;11.50;99.90;;;;;;4983209;28;20132;-79
2023/03/31 12:23:08;;;;;;;20.27;14.55;;;10.70;99.90;;;;;;5008931;28;20490;-79
2023/03/31 12:26:02;;;;;;;18.80;16.55;;;10.30;99.90;;;;;;5007718;28;20857;-78
2023/03/31 12:28:31;;;;;;;19.33;13.73;;;10.30;99.90;;;;;;4988336;28;20054;-77
2023/03/31 12:31:02;;;;;;;20.90;15.38;;;10.40;99.90;;;;;;4999631;28;20045;-77
2023/03/31 12:33:39;;;;;;;19.17;12.95;;;10.60;99.90;;;;;;5015978;28;20128;-76
2023/03/31 12:36:35;;;;;;;20.35;13.68;;;10.80;99.90;;;;;;5009884;28;20040;-78
2023/03/31 12:39:20;;;;;;;;;;;10.70;99.90;;;;;;4992438;28;20069;-79
2023/03/31 12:42:00;;;;;;;14.73;8.77;;;10.70;99.90;;;;;;4991097;28;19990;-79
2023/03/31 12:44:51;;;;;;;8.82;7.43;;;10.20;99.90;;;;;;5007128;28;20688;-79
2023/03/31 12:47:53;;;;;;;10.15;9.18;;;9.50;99.90;;;;;;5010324;28;20037;-76
2023/03/31 12:50:35;;;;;;;11.13;10.10;;;9.30;99.90;;;;;;5003895;28;20064;-77
2023/03/31 12:53:14;;;;;;;10.30;9.45;;;9.30;99.90;;;;;;5000223;28;20050;-77
2023/03/31 12:55:48;;;;;;;10.80;9.95;;;9.30;99.90;;;;;;5032218;28;20052;-76
2023/03/31 12:58:35;;;;;;;;;;;9.40;99.90;;;;;;5006026;28;20124;-77
2023/03/31 13:01:13;;;;;;;9.95;8.93;;;9.40;99.90;;;;;;5005146;28;20412;-76
2023/03/31 13:04:32;;;;;;;8.57;7.97;;;9.60;99.90;;;;;;5008302;28;20898;-77
2023/03/31 13:06:59;;;;;;;10.00;9.35;;;9.80;99.90;;;;;;4991474;28;20413;-78
2023/03/31 13:09:32;;;;;;;10.10;9.25;;;9.70;99.90;;;;;;5002706;28;20061;-76
2023/03/31 13:12:07;;;;;;;13.40;12.30;;;9.80;99.90;;;;;;5010413;28;20375;-77
2023/03/31 13:14:37;;;;;;;14.82;13.48;;;9.80;99.90;;;;;;5006568;28;20042;-76
2023/03/31 13:17:22;;;;;;;13.05;11.85;;;9.90;99.90;;;;;;5010065;28;20060;-76
2023/03/31 13:19:50;;;;;;;12.98;11.82;;;9.90;99.90;;;;;;5005226;28;20052;-77
2023/03/31 13:22:36;;;;;;;11.38;10.48;;;9.90;99.90;;;;;;4999212;28;20037;-77